sensor_id;sensor_type;location;lat;lon;timestamp;pressure;altitude;pressure_sealevel;temperature;humidity
2188;BME280;1100;52.014;8.540;2022-09-09T00:01:05;99461.63;;;16.62;67.48
2188;BME280;1100;52.014;8.540;2022-09-09T00:03:45;99468.03;;;16.62;67.62
2188;BME280;1100;52.014;8.540;2022-09-09T00:06:21;99458.06;;;16.61;67.51
2188;BME280;1100;52.014;8.540;2022-09-09T00:09:00;99463.19;;;16.63;67.48
2188;BME280;1100;52.014;8.540;2022-09-09T00:11:32;99459.59;;;16.62;67.41
2188;BME280;1100;52.014;8.540;2022-09-09T00:14:03;99459.31;;;16.60;67.37
2188;BME280;1100;52.014;8.540;2022-09-09T00:16:36;99461.38;;;16.60;67.38
2188;BME280;1100;52.014;8.540;2022-09-09T00:24:43;99456.75;;;16.56;67.55
2188;BME280;1100;52.014;8.540;2022-09-09T00:27:17;99461.59;;;16.56;67.40
2188;BME280;1100;52.014;8.540;2022-09-09T00:29:57;99463.13;;;16.57;67.44
2188;BME280;1100;52.014;8.540;2022-09-09T00:32:28;99465.19;;;16.56;67.63
2188;BME280;1100;52.014;8.540;2022-09-09T00:35:03;99462.38;;;16.56;67.55
2188;BME280;1100;52.014;8.540;2022-09-09T00:37:31;99458.28;;;16.58;67.59
2188;BME280;1100;52.014;8.540;2022-09-09T00:40:00;99461.09;;;16.58;67.46
2188;BME280;1100;52.014;8.540;2022-09-09T00:42:40;99457.25;;;16.55;67.59
2188;BME280;1100;52.014;8.540;2022-09-09T00:47:51;99454.94;;;16.53;67.71
2188;BME280;1100;52.014;8.540;2022-09-09T00:53:05;99454.94;;;16.53;67.68
2188;BME280;1100;52.014;8.540;2022-09-09T00:58:06;99451.09;;;16.51;67.54
2188;BME280;1100;52.014;8.540;2022-09-09T01:00:43;99456.69;;;16.51;67.76
2188;BME280;1100;52.014;8.540;2022-09-09T01:03:29;99457.47;;;16.51;67.80
2188;BME280;1100;52.014;8.540;2022-09-09T01:11:00;99448.78;;;16.49;67.65
2188;BME280;1100;52.014;8.540;2022-09-09T01:13:32;99450.34;;;16.50;67.70
2188;BME280;1100;52.014;8.540;2022-09-09T01:16:01;99452.84;;;16.48;67.78
2188;BME280;1100;52.014;8.540;2022-09-09T01:18:37;99445.44;;;16.45;67.69
2188;BME280;1100;52.014;8.540;2022-09-09T01:23:34;99443.63;;;16.42;67.73
2188;BME280;1100;52.014;8.540;2022-09-09T01:28:35;99443.84;;;16.38;67.76
2188;BME280;1100;52.014;8.540;2022-09-09T01:31:03;99454.31;;;16.38;67.76
2188;BME280;1100;52.014;8.540;2022-09-09T01:33:29;99444.63;;;16.39;67.85
2188;BME280;1100;52.014;8.540;2022-09-09T01:35:55;99442.31;;;16.37;67.71
2188;BME280;1100;52.014;8.540;2022-09-09T01:38:23;99455.06;;;16.38;67.77
2188;BME280;1100;52.014;8.540;2022-09-09T01:40:50;99456.81;;;16.36;67.85
2188;BME280;1100;52.014;8.540;2022-09-09T01:43:18;99453.53;;;16.37;67.81
2188;BME280;1100;52.014;8.540;2022-09-09T01:45:46;99452.00;;;16.36;67.93
2188;BME280;1100;52.014;8.540;2022-09-09T01:48:14;99450.44;;;16.35;67.83
2188;BME280;1100;52.014;8.540;2022-09-09T01:50:39;99446.59;;;16.33;67.80
2188;BME280;1100;52.014;8.540;2022-09-09T01:53:04;99451.22;;;16.36;67.91
2188;BME280;1100;52.014;8.540;2022-09-09T01:55:38;99448.41;;;16.36;67.86
2188;BME280;1100;52.014;8.540;2022-09-09T01:58:31;99453.75;;;16.34;67.97
2188;BME280;1100;52.014;8.540;2022-09-09T02:01:08;99450.44;;;16.35;67.78
2188;BME280;1100;52.014;8.540;2022-09-09T02:03:37;99450.44;;;16.35;67.96
2188;BME280;1100;52.014;8.540;2022-09-09T02:06:08;99448.13;;;16.34;67.79
2188;BME280;1100;52.014;8.540;2022-09-09T02:08:45;99452.50;;;16.35;67.80
2188;BME280;1100;52.014;8.540;2022-09-09T02:11:20;99448.63;;;16.32;67.80
2188;BME280;1100;52.014;8.540;2022-09-09T02:13:48;99447.59;;;16.29;67.89
2188;BME280;1100;52.014;8.540;2022-09-09T02:18:50;99454.97;;;16.27;67.89
2188;BME280;1100;52.014;8.540;2022-09-09T02:21:17;99454.19;;;16.26;67.82
2188;BME280;1100;52.014;8.540;2022-09-09T02:23:44;99448.59;;;16.26;67.89
2188;BME280;1100;52.014;8.540;2022-09-09T02:26:13;99452.66;;;16.25;67.88
2188;BME280;1100;52.014;8.540;2022-09-09T02:28:45;99447.81;;;16.26;67.81
2188;BME280;1100;52.014;8.540;2022-09-09T02:31:13;99460.78;;;16.23;67.84
2188;BME280;1100;52.014;8.540;2022-09-09T02:33:44;99460.00;;;16.23;67.91
2188;BME280;1100;52.014;8.540;2022-09-09T02:36:12;99457.69;;;16.21;67.61
2188;BME280;1100;52.014;8.540;2022-09-09T02:38:47;99457.69;;;16.21;67.93
2188;BME280;1100;52.014;8.540;2022-09-09T02:41:20;99458.19;;;16.19;67.71
2188;BME280;1100;52.014;8.540;2022-09-09T02:43:48;99454.16;;;16.21;68.04
2188;BME280;1100;52.014;8.540;2022-09-09T02:46:23;99460.25;;;16.19;67.87
2188;BME280;1100;52.014;8.540;2022-09-09T02:51:48;99463.03;;;16.19;67.91
2188;BME280;1100;52.014;8.540;2022-09-09T02:54:33;99464.28;;;16.18;67.88
2188;BME280;1100;52.014;8.540;2022-09-09T02:57:21;99463.03;;;16.19;67.97
2188;BME280;1100;52.014;8.540;2022-09-09T02:59:47;99462.75;;;16.17;68.06
2188;BME280;1100;52.014;8.540;2022-09-09T03:02:13;99457.66;;;16.15;67.90
2188;BME280;1100;52.014;8.540;2022-09-09T03:04:39;99456.13;;;16.14;68.06
2188;BME280;1100;52.014;8.540;2022-09-09T03:07:05;99455.63;;;16.16;67.96
2188;BME280;1100;52.014;8.540;2022-09-09T03:09:31;99458.44;;;16.16;67.99
2188;BME280;1100;52.014;8.540;2022-09-09T03:11:58;99462.47;;;16.15;68.07
2188;BME280;1100;52.014;8.540;2022-09-09T03:14:23;99463.75;;;16.14;68.01
2188;BME280;1100;52.014;8.540;2022-09-09T03:16:53;99467.81;;;16.13;68.13
2188;BME280;1100;52.014;8.540;2022-09-09T03:19:19;99462.97;;;16.13;68.03
2188;BME280;1100;52.014;8.540;2022-09-09T03:21:47;99467.81;;;16.13;68.02
2188;BME280;1100;52.014;8.540;2022-09-09T03:24:13;99477.78;;;16.14;68.27
2188;BME280;1100;52.014;8.540;2022-09-09T03:26:39;99467.34;;;16.14;68.15
2188;BME280;1100;52.014;8.540;2022-09-09T03:29:06;99460.16;;;16.13;68.17
2188;BME280;1100;52.014;8.540;2022-09-09T03:31:32;99458.91;;;16.14;68.06
2188;BME280;1100;52.014;8.540;2022-09-09T03:33:58;99456.88;;;16.15;68.22
2188;BME280;1100;52.014;8.540;2022-09-09T03:36:25;99459.19;;;16.16;68.32
2188;BME280;1100;52.014;8.540;2022-09-09T03:38:51;99457.94;;;16.17;68.31
2188;BME280;1100;52.014;8.540;2022-09-09T03:41:17;99459.47;;;16.18;68.36
2188;BME280;1100;52.014;8.540;2022-09-09T03:43:43;99461.00;;;16.19;68.36
2188;BME280;1100;52.014;8.540;2022-09-09T03:46:08;99461.00;;;16.19;68.40
2188;BME280;1100;52.014;8.540;2022-09-09T03:48:34;99456.94;;;16.21;68.40
2188;BME280;1100;52.014;8.540;2022-09-09T03:50:59;99462.81;;;16.23;68.32
2188;BME280;1100;52.014;8.540;2022-09-09T03:53:26;99453.91;;;16.24;68.47
2188;BME280;1100;52.014;8.540;2022-09-09T03:55:54;99454.19;;;16.26;68.46
2188;BME280;1100;52.014;8.540;2022-09-09T03:58:20;99457.00;;;16.26;68.38
2188;BME280;1100;52.014;8.540;2022-09-09T04:01:00;99451.09;;;16.24;68.37
2188;BME280;1100;52.014;8.540;2022-09-09T04:03:26;99451.09;;;16.24;68.46
2188;BME280;1100;52.014;8.540;2022-09-09T04:05:52;99453.91;;;16.24;68.41
2188;BME280;1100;52.014;8.540;2022-09-09T04:08:19;99450.34;;;16.24;68.39
2188;BME280;1100;52.014;8.540;2022-09-09T04:10:48;99460.28;;;16.25;68.44
2188;BME280;1100;52.014;8.540;2022-09-09T04:13:14;99466.41;;;16.23;68.50
2188;BME280;1100;52.014;8.540;2022-09-09T04:15:41;99462.31;;;16.24;68.55
2188;BME280;1100;52.014;8.540;2022-09-09T04:18:07;99467.66;;;16.22;68.57
2188;BME280;1100;52.014;8.540;2022-09-09T04:20:32;99467.16;;;16.24;68.56
2188;BME280;1100;52.014;8.540;2022-09-09T04:22:58;99473.53;;;16.24;68.55
2188;BME280;1100;52.014;8.540;2022-09-09T04:25:24;99471.00;;;16.26;68.49
2188;BME280;1100;52.014;8.540;2022-09-09T04:27:54;99472.28;;;16.25;68.56
2188;BME280;1100;52.014;8.540;2022-09-09T04:30:19;99475.09;;;16.25;68.75
2188;BME280;1100;52.014;8.540;2022-09-09T04:32:46;99484.00;;;16.24;68.57
2188;BME280;1100;52.014;8.540;2022-09-09T04:35:11;99472.78;;;16.24;68.62
2188;BME280;1100;52.014;8.540;2022-09-09T04:37:36;99482.44;;;16.23;68.56
2188;BME280;1100;52.014;8.540;2022-09-09T04:40:02;99467.38;;;16.20;68.63
2188;BME280;1100;52.014;8.540;2022-09-09T04:42:28;99472.16;;;16.14;68.62
2188;BME280;1100;52.014;8.540;2022-09-09T04:44:53;99475.94;;;16.11;68.63
2188;BME280;1100;52.014;8.540;2022-09-09T04:47:19;99475.41;;;16.06;68.59
2188;BME280;1100;52.014;8.540;2022-09-09T04:49:44;99470.78;;;16.03;68.65
2188;BME280;1100;52.014;8.540;2022-09-09T04:52:09;99475.81;;;15.99;68.84
2188;BME280;1100;52.014;8.540;2022-09-09T04:54:35;99472.44;;;15.95;68.64
2188;BME280;1100;52.014;8.540;2022-09-09T04:57:00;99479.53;;;15.90;68.78
2188;BME280;1100;52.014;8.540;2022-09-09T04:59:25;99471.03;;;15.85;68.91
2188;BME280;1100;52.014;8.540;2022-09-09T05:01:51;99478.88;;;15.80;69.00
2188;BME280;1100;52.014;8.540;2022-09-09T05:04:16;99477.84;;;15.78;68.82
2188;BME280;1100;52.014;8.540;2022-09-09T05:06:41;99478.84;;;15.75;68.97
2188;BME280;1100;52.014;8.540;2022-09-09T05:09:07;99476.53;;;15.73;68.97
2188;BME280;1100;52.014;8.540;2022-09-09T05:11:33;99484.16;;;15.73;69.16
2188;BME280;1100;52.014;8.540;2022-09-09T05:14:02;99479.03;;;15.71;69.30
2188;BME280;1100;52.014;8.540;2022-09-09T05:16:27;99479.81;;;15.72;69.20
2188;BME280;1100;52.014;8.540;2022-09-09T05:18:53;99481.34;;;15.73;69.28
2188;BME280;1100;52.014;8.540;2022-09-09T05:21:20;99487.25;;;15.75;69.26
2188;BME280;1100;52.014;8.540;2022-09-09T05:23:46;99483.66;;;15.74;69.48
2188;BME280;1100;52.014;8.540;2022-09-09T05:26:14;99486.75;;;15.76;69.24
2188;BME280;1100;52.014;8.540;2022-09-09T05:28:39;99480.38;;;15.76;69.37
2188;BME280;1100;52.014;8.540;2022-09-09T05:31:06;99485.19;;;15.75;69.51
2188;BME280;1100;52.014;8.540;2022-09-09T05:33:38;99480.84;;;15.74;69.59
2188;BME280;1100;52.014;8.540;2022-09-09T05:36:07;99482.13;;;15.73;69.53
2188;BME280;1100;52.014;8.540;2022-09-09T05:38:34;99489.25;;;15.74;69.56
2188;BME280;1100;52.014;8.540;2022-09-09T05:40:59;99483.66;;;15.74;69.54
2188;BME280;1100;52.014;8.540;2022-09-09T05:43:26;99488.00;;;15.75;69.71
2188;BME280;1100;52.014;8.540;2022-09-09T05:46:00;99483.47;;;15.78;69.83
2188;BME280;1100;52.014;8.540;2022-09-09T05:48:34;99487.50;;;15.77;69.76
2188;BME280;1100;52.014;8.540;2022-09-09T05:51:00;99486.25;;;15.78;69.89
2188;BME280;1100;52.014;8.540;2022-09-09T05:53:27;99485.00;;;15.79;69.75
2188;BME280;1100;52.014;8.540;2022-09-09T05:56:03;99483.22;;;15.81;70.00
2188;BME280;1100;52.014;8.540;2022-09-09T05:58:31;99486.31;;;15.84;69.87
2188;BME280;1100;52.014;8.540;2022-09-09T06:01:06;99488.13;;;15.87;70.10
2188;BME280;1100;52.014;8.540;2022-09-09T06:03:33;99494.03;;;15.89;70.05
2188;BME280;1100;52.014;8.540;2022-09-09T06:06:01;99495.84;;;15.92;70.05
2188;BME280;1100;52.014;8.540;2022-09-09T06:08:27;99493.31;;;15.94;70.17
2188;BME280;1100;52.014;8.540;2022-09-09T06:10:53;99489.53;;;15.97;70.27
2188;BME280;1100;52.014;8.540;2022-09-09T06:13:18;99489.34;;;16.01;70.02
2188;BME280;1100;52.014;8.540;2022-09-09T06:15:51;99484.81;;;16.03;70.28
2188;BME280;1100;52.014;8.540;2022-09-09T06:18:17;99479.47;;;16.05;70.11
2188;BME280;1100;52.014;8.540;2022-09-09T06:20:53;99478.22;;;16.06;69.94
2188;BME280;1100;52.014;8.540;2022-09-09T06:23:19;99487.38;;;16.07;69.88
2188;BME280;1100;52.014;8.540;2022-09-09T06:25:45;99488.16;;;16.08;70.07
2188;BME280;1100;52.014;8.540;2022-09-09T06:28:11;99477.72;;;16.08;70.08
2188;BME280;1100;52.014;8.540;2022-09-09T06:30:36;99481.56;;;16.11;70.19
2188;BME280;1100;52.014;8.540;2022-09-09T06:33:02;99476.72;;;16.11;70.27
2188;BME280;1100;52.014;8.540;2022-09-09T06:35:27;99483.38;;;16.14;70.31
2188;BME280;1100;52.014;8.540;2022-09-09T06:37:53;99476.50;;;16.15;70.24
2188;BME280;1100;52.014;8.540;2022-09-09T06:40:19;99475.50;;;16.18;70.30
2188;BME280;1100;52.014;8.540;2022-09-09T06:42:44;99480.41;;;16.23;70.25
2188;BME280;1100;52.014;8.540;2022-09-09T06:45:10;99468.22;;;16.26;70.36
2188;BME280;1100;52.014;8.540;2022-09-09T06:47:36;99470.03;;;16.29;70.41
2188;BME280;1100;52.014;8.540;2022-09-09T06:50:01;99474.94;;;16.35;70.42
2188;BME280;1100;52.014;8.540;2022-09-09T06:52:26;99472.66;;;16.39;70.53
2188;BME280;1100;52.014;8.540;2022-09-09T06:54:52;99479.31;;;16.41;70.41
2188;BME280;1100;52.014;8.540;2022-09-09T06:57:18;99484.69;;;16.45;70.31
2188;BME280;1100;52.014;8.540;2022-09-09T06:59:43;99486.50;;;16.48;70.42
2188;BME280;1100;52.014;8.540;2022-09-09T07:02:09;99493.66;;;16.49;70.51
2188;BME280;1100;52.014;8.540;2022-09-09T07:04:35;99488.81;;;16.50;70.47
2188;BME280;1100;52.014;8.540;2022-09-09T07:07:00;99496.75;;;16.51;70.39
2188;BME280;1100;52.014;8.540;2022-09-09T07:09:26;99488.03;;;16.49;70.28
2188;BME280;1100;52.014;8.540;2022-09-09T07:11:52;99497.72;;;16.48;70.19
2188;BME280;1100;52.014;8.540;2022-09-09T07:14:18;99501.03;;;16.47;70.25
2188;BME280;1100;52.014;8.540;2022-09-09T07:16:44;99494.66;;;16.46;70.29
2188;BME280;1100;52.014;8.540;2022-09-09T07:19:11;99500.25;;;16.46;70.17
2188;BME280;1100;52.014;8.540;2022-09-09T07:21:38;99508.19;;;16.48;70.33
2188;BME280;1100;52.014;8.540;2022-09-09T07:24:05;99497.72;;;16.48;70.38
2188;BME280;1100;52.014;8.540;2022-09-09T07:26:33;99504.13;;;16.49;70.30
2188;BME280;1100;52.014;8.540;2022-09-09T07:28:59;99505.16;;;16.51;70.25
2188;BME280;1100;52.014;8.540;2022-09-09T07:31:29;99509.50;;;16.52;70.49
2188;BME280;1100;52.014;8.540;2022-09-09T07:33:55;99515.88;;;16.53;70.45
2188;BME280;1100;52.014;8.540;2022-09-09T07:36:29;99511.81;;;16.54;70.29
2188;BME280;1100;52.014;8.540;2022-09-09T07:38:57;99508.50;;;16.55;70.25
2188;BME280;1100;52.014;8.540;2022-09-09T07:41:26;99515.94;;;16.59;70.30
2188;BME280;1100;52.014;8.540;2022-09-09T07:43:52;99512.38;;;16.58;70.37
2188;BME280;1100;52.014;8.540;2022-09-09T07:46:19;99518.25;;;16.60;70.33
2188;BME280;1100;52.014;8.540;2022-09-09T07:48:46;99513.41;;;16.61;70.35
2188;BME280;1100;52.014;8.540;2022-09-09T07:51:15;99516.00;;;16.64;70.40
2188;BME280;1100;52.014;8.540;2022-09-09T07:53:43;99516.00;;;16.64;70.67
2188;BME280;1100;52.014;8.540;2022-09-09T07:56:10;99519.84;;;16.67;70.54
2188;BME280;1100;52.014;8.540;2022-09-09T07:58:37;99510.94;;;16.68;70.39
2188;BME280;1100;52.014;8.540;2022-09-09T08:01:24;99507.13;;;16.72;70.36
2188;BME280;1100;52.014;8.540;2022-09-09T08:06:27;99513.28;;;16.76;70.57
2188;BME280;1100;52.014;8.540;2022-09-09T08:08:53;99504.63;;;16.79;70.37
2188;BME280;1100;52.014;8.540;2022-09-09T08:11:23;99504.91;;;16.81;70.40
2188;BME280;1100;52.014;8.540;2022-09-09T08:13:50;99512.59;;;16.87;70.34
2188;BME280;1100;52.014;8.540;2022-09-09T08:16:21;99507.78;;;16.93;70.43
2188;BME280;1100;52.014;8.540;2022-09-09T08:18:48;99505.81;;;16.99;70.61
2188;BME280;1100;52.014;8.540;2022-09-09T08:21:16;99505.88;;;17.05;70.53
2188;BME280;1100;52.014;8.540;2022-09-09T08:23:43;99506.91;;;17.08;70.44
2188;BME280;1100;52.014;8.540;2022-09-09T08:26:15;99506.69;;;17.11;70.46
2188;BME280;1100;52.014;8.540;2022-09-09T08:28:42;99509.53;;;17.17;70.48
2188;BME280;1100;52.014;8.540;2022-09-09T08:31:11;99511.13;;;17.24;70.67
2188;BME280;1100;52.014;8.540;2022-09-09T08:33:37;99506.84;;;17.34;70.60
2188;BME280;1100;52.014;8.540;2022-09-09T08:36:04;99510.50;;;17.46;70.79
2188;BME280;1100;52.014;8.540;2022-09-09T08:38:30;99514.91;;;17.59;70.77
2188;BME280;1100;52.014;8.540;2022-09-09T08:43:33;99521.13;;;17.74;70.47
2188;BME280;1100;52.014;8.540;2022-09-09T08:46:05;99516.78;;;17.79;70.49
2188;BME280;1100;52.014;8.540;2022-09-09T08:48:47;99524.72;;;17.80;70.38
2188;BME280;1100;52.014;8.540;2022-09-09T08:51:18;99518.09;;;17.84;70.27
2188;BME280;1100;52.014;8.540;2022-09-09T08:53:48;99526.78;;;17.86;70.27
2188;BME280;1100;52.014;8.540;2022-09-09T08:56:21;99522.94;;;17.83;70.00
2188;BME280;1100;52.014;8.540;2022-09-09T08:58:49;99532.16;;;17.84;69.98
2188;BME280;1100;52.014;8.540;2022-09-09T09:04:15;99527.50;;;17.75;69.86
2188;BME280;1100;52.014;8.540;2022-09-09T09:12:26;99523.88;;;17.68;69.88
2188;BME280;1100;52.014;8.540;2022-09-09T09:14:54;99529.25;;;17.66;69.68
2188;BME280;1100;52.014;8.540;2022-09-09T09:17:23;99524.88;;;17.65;69.73
2188;BME280;1100;52.014;8.540;2022-09-09T09:19:50;99542.53;;;17.66;69.56
2188;BME280;1100;52.014;8.540;2022-09-09T09:22:24;99534.59;;;17.64;69.59
2188;BME280;1100;52.014;8.540;2022-09-09T09:25:03;99545.06;;;17.64;69.59
2188;BME280;1100;52.014;8.540;2022-09-09T09:27:33;99541.00;;;17.65;69.49
2188;BME280;1100;52.014;8.540;2022-09-09T09:30:15;99533.06;;;17.63;69.58
2188;BME280;1100;52.014;8.540;2022-09-09T09:32:51;99522.59;;;17.64;69.52
2188;BME280;1100;52.014;8.540;2022-09-09T09:35:17;99532.06;;;17.66;69.32
2188;BME280;1100;52.014;8.540;2022-09-09T09:37:42;99529.00;;;17.70;69.52
2188;BME280;1100;52.014;8.540;2022-09-09T09:40:17;99524.94;;;17.77;69.53
2188;BME280;1100;52.014;8.540;2022-09-09T09:48:05;99517.91;;;18.04;69.54
2188;BME280;1100;52.014;8.540;2022-09-09T09:50:32;99520.72;;;18.04;69.25
2188;BME280;1100;52.014;8.540;2022-09-09T09:53:03;99527.84;;;18.00;69.06
2188;BME280;1100;52.014;8.540;2022-09-09T09:55:31;99533.47;;;17.94;68.87
2188;BME280;1100;52.014;8.540;2022-09-09T09:58:03;99532.38;;;17.86;68.74
2188;BME280;1100;52.014;8.540;2022-09-09T10:00:29;99537.50;;;17.81;68.89
2188;BME280;1100;52.014;8.540;2022-09-09T10:02:54;99528.34;;;17.92;69.13
2188;BME280;1100;52.014;8.540;2022-09-09T10:05:22;99537.13;;;18.12;69.52
2188;BME280;1100;52.014;8.540;2022-09-09T10:08:05;99546.13;;;18.33;69.33
2188;BME280;1100;52.014;8.540;2022-09-09T10:10:56;99523.44;;;18.60;69.11
2188;BME280;1100;52.014;8.540;2022-09-09T10:21:28;99517.72;;;19.69;68.69
2188;BME280;1100;52.014;8.540;2022-09-09T10:32:48;99516.06;;;21.42;67.34
2188;BME280;1100;52.014;8.540;2022-09-09T10:35:41;99530.28;;;21.31;66.85
2188;BME280;1100;52.014;8.540;2022-09-09T10:46:42;99519.94;;;21.64;67.01
2188;BME280;1100;52.014;8.540;2022-09-09T10:55:02;99513.09;;;22.56;66.28
2188;BME280;1100;52.014;8.540;2022-09-09T10:57:44;99517.75;;;22.72;66.49
2188;BME280;1100;52.014;8.540;2022-09-09T11:00:17;99517.88;;;22.80;66.04
2188;BME280;1100;52.014;8.540;2022-09-09T11:02:47;99518.41;;;22.78;65.48
2188;BME280;1100;52.014;8.540;2022-09-09T11:07:48;99504.50;;;22.94;65.43
2188;BME280;1100;52.014;8.540;2022-09-09T11:12:59;99511.69;;;22.82;64.95
2188;BME280;1100;52.014;8.540;2022-09-09T11:15:36;99512.97;;;22.67;65.17
2188;BME280;1100;52.014;8.540;2022-09-09T11:18:05;99509.13;;;22.45;65.30
2188;BME280;1100;52.014;8.540;2022-09-09T11:20:34;99514.19;;;22.14;64.91
2188;BME280;1100;52.014;8.540;2022-09-09T11:23:12;99512.03;;;21.82;64.84
2188;BME280;1100;52.014;8.540;2022-09-09T11:25:43;99526.53;;;21.47;64.91
2188;BME280;1100;52.014;8.540;2022-09-09T11:28:36;99507.91;;;21.08;64.73
2188;BME280;1100;52.014;8.540;2022-09-09T11:41:43;99502.72;;;20.08;65.65
2188;BME280;1100;52.014;8.540;2022-09-09T11:44:11;99495.53;;;20.01;65.58
2188;BME280;1100;52.014;8.540;2022-09-09T11:46:38;99508.38;;;19.91;65.47
2188;BME280;1100;52.014;8.540;2022-09-09T11:49:25;99516.16;;;19.73;65.45
2188;BME280;1100;52.014;8.540;2022-09-09T11:51:51;99504.94;;;19.56;65.44
2188;BME280;1100;52.014;8.540;2022-09-09T11:54:32;99511.38;;;19.39;65.54
2188;BME280;1100;52.014;8.540;2022-09-09T11:57:04;99508.84;;;19.24;65.67
2188;BME280;1100;52.014;8.540;2022-09-09T11:59:31;99505.28;;;19.12;65.76
2188;BME280;1100;52.014;8.540;2022-09-09T12:06:56;99504.00;;;18.96;66.16
2188;BME280;1100;52.014;8.540;2022-09-09T12:09:27;99505.78;;;18.99;66.16
2188;BME280;1100;52.014;8.540;2022-09-09T12:12:05;99502.97;;;18.99;66.31
2188;BME280;1100;52.014;8.540;2022-09-09T12:15:23;99502.72;;;19.03;66.26
2188;BME280;1100;52.014;8.540;2022-09-09T12:17:24;99505.03;;;19.04;66.30
2188;BME280;1100;52.014;8.540;2022-09-09T12:28:32;99490.94;;;19.04;66.22
2188;BME280;1100;52.014;8.540;2022-09-09T12:31:10;99494.00;;;19.07;66.16
2188;BME280;1100;52.014;8.540;2022-09-09T12:33:43;99490.94;;;19.10;66.11
2188;BME280;1100;52.014;8.540;2022-09-09T12:36:13;99483.28;;;19.11;65.95
2188;BME280;1100;52.014;8.540;2022-09-09T12:38:41;99477.13;;;19.12;65.91
2188;BME280;1100;52.014;8.540;2022-09-09T12:41:19;99476.84;;;19.16;65.99
2188;BME280;1100;52.014;8.540;2022-09-09T12:43:44;99481.97;;;19.17;65.97
2188;BME280;1100;52.014;8.540;2022-09-09T12:46:18;99491.44;;;19.20;66.12
2188;BME280;1100;52.014;8.540;2022-09-09T12:48:46;99484.53;;;19.21;66.00
2188;BME280;1100;52.014;8.540;2022-09-09T12:51:32;99486.84;;;19.23;65.98
2188;BME280;1100;52.014;8.540;2022-09-09T12:53:59;99468.63;;;19.24;65.91
2188;BME280;1100;52.014;8.540;2022-09-09T12:56:32;99467.38;;;19.25;65.93
2188;BME280;1100;52.014;8.540;2022-09-09T12:58:58;99466.59;;;19.24;65.86
2188;BME280;1100;52.014;8.540;2022-09-09T13:01:26;99492.22;;;19.26;65.82
2188;BME280;1100;52.014;8.540;2022-09-09T13:03:53;99475.53;;;19.28;65.81
2188;BME280;1100;52.014;8.540;2022-09-09T13:06:24;99473.47;;;19.35;65.88
2188;BME280;1100;52.014;8.540;2022-09-09T13:08:54;99477.56;;;19.39;65.92
2188;BME280;1100;52.014;8.540;2022-09-09T13:11:25;99469.09;;;19.45;65.93
2188;BME280;1100;52.014;8.540;2022-09-09T13:13:55;99467.81;;;19.46;65.86
2188;BME280;1100;52.014;8.540;2022-09-09T13:16:33;99475.25;;;19.44;65.73
2188;BME280;1100;52.014;8.540;2022-09-09T13:19:17;99472.19;;;19.41;65.70
2188;BME280;1100;52.014;8.540;2022-09-09T13:21:42;99469.63;;;19.38;65.51
2188;BME280;1100;52.014;8.540;2022-09-09T13:27:01;99467.34;;;19.30;65.41
2188;BME280;1100;52.014;8.540;2022-09-09T13:29:27;99463.00;;;19.29;65.43
2188;BME280;1100;52.014;8.540;2022-09-09T13:31:53;99462.22;;;19.29;65.35
2188;BME280;1100;52.014;8.540;2022-09-09T13:34:32;99469.91;;;19.28;65.35
2188;BME280;1100;52.014;8.540;2022-09-09T13:37:02;99466.06;;;19.32;65.32
2188;BME280;1100;52.014;8.540;2022-09-09T13:39:29;99465.78;;;19.41;65.50
2188;BME280;1100;52.014;8.540;2022-09-09T13:41:54;99458.78;;;19.65;65.89
2188;BME280;1100;52.014;8.540;2022-09-09T13:44:24;99466.81;;;19.97;66.13
2188;BME280;1100;52.014;8.540;2022-09-09T13:49:28;99455.00;;;20.77;66.12
2188;BME280;1100;52.014;8.540;2022-09-09T13:52:11;99463.41;;;21.14;65.63
2188;BME280;1100;52.014;8.540;2022-09-09T13:54:37;99457.38;;;21.48;65.94
2188;BME280;1100;52.014;8.540;2022-09-09T13:57:02;99455.28;;;21.74;65.61
2188;BME280;1100;52.014;8.540;2022-09-09T13:59:29;99443.69;;;21.97;65.22
2188;BME280;1100;52.014;8.540;2022-09-09T14:01:54;99452.41;;;22.18;65.37
2188;BME280;1100;52.014;8.540;2022-09-09T14:04:20;99456.72;;;22.38;65.05
2188;BME280;1100;52.014;8.540;2022-09-09T14:06:49;99461.91;;;22.53;64.82
2188;BME280;1100;52.014;8.540;2022-09-09T14:09:17;99456.94;;;22.60;64.50
2188;BME280;1100;52.014;8.540;2022-09-09T14:11:44;99457.69;;;22.60;64.12
2188;BME280;1100;52.014;8.540;2022-09-09T14:14:10;99456.94;;;22.60;64.18
2188;BME280;1100;52.014;8.540;2022-09-09T14:16:36;99459.22;;;22.61;64.12
2188;BME280;1100;52.014;8.540;2022-09-09T14:19:03;99453.31;;;22.59;64.02
2188;BME280;1100;52.014;8.540;2022-09-09T14:21:28;99451.09;;;22.52;63.46
2188;BME280;1100;52.014;8.540;2022-09-09T14:23:53;99454.75;;;22.33;63.23
2188;BME280;1100;52.014;8.540;2022-09-09T14:26:20;99457.16;;;22.10;62.72
2188;BME280;1100;52.014;8.540;2022-09-09T14:28:47;99465.72;;;21.85;62.83
2188;BME280;1100;52.014;8.540;2022-09-09T14:31:12;99448.00;;;21.59;62.60
2188;BME280;1100;52.014;8.540;2022-09-09T14:33:43;99453.94;;;21.36;62.80
2188;BME280;1100;52.014;8.540;2022-09-09T14:36:08;99448.75;;;21.15;62.63
2188;BME280;1100;52.014;8.540;2022-09-09T14:38:35;99445.13;;;20.96;62.85
2188;BME280;1100;52.014;8.540;2022-09-09T14:41:14;99448.06;;;20.78;62.75
2188;BME280;1100;52.014;8.540;2022-09-09T14:43:43;99453.56;;;20.65;62.87
2188;BME280;1100;52.014;8.540;2022-09-09T14:46:12;99447.50;;;20.55;63.06
2188;BME280;1100;52.014;8.540;2022-09-09T14:48:38;99447.06;;;20.45;62.86
2188;BME280;1100;52.014;8.540;2022-09-09T14:51:11;99449.69;;;20.37;63.00
2188;BME280;1100;52.014;8.540;2022-09-09T14:53:38;99454.88;;;20.27;63.09
2188;BME280;1100;52.014;8.540;2022-09-09T14:56:08;99455.97;;;20.19;63.05
2188;BME280;1100;52.014;8.540;2022-09-09T14:58:34;99457.28;;;20.12;62.86
2188;BME280;1100;52.014;8.540;2022-09-09T15:01:09;99455.81;;;20.05;63.01
2188;BME280;1100;52.014;8.540;2022-09-09T15:03:36;99458.38;;;20.03;62.96
2188;BME280;1100;52.014;8.540;2022-09-09T15:06:12;99453.22;;;19.96;62.91
2188;BME280;1100;52.014;8.540;2022-09-09T15:08:40;99454.56;;;19.89;62.78
2188;BME280;1100;52.014;8.540;2022-09-09T15:11:06;99468.41;;;19.87;62.94
2188;BME280;1100;52.014;8.540;2022-09-09T15:13:33;99464.34;;;19.82;62.80
2188;BME280;1100;52.014;8.540;2022-09-09T15:16:13;99463.84;;;19.78;62.97
2188;BME280;1100;52.014;8.540;2022-09-09T15:18:39;99461.28;;;19.74;63.02
2188;BME280;1100;52.014;8.540;2022-09-09T15:21:12;99467.97;;;19.71;62.98
2188;BME280;1100;52.014;8.540;2022-09-09T15:23:38;99467.50;;;19.67;63.04
2188;BME280;1100;52.014;8.540;2022-09-09T15:26:04;99464.16;;;19.63;63.04
2188;BME280;1100;52.014;8.540;2022-09-09T15:28:32;99464.97;;;19.58;63.04